createdAt,value
2019-04-14T00:02:29.620Z,0.4
2019-04-14T00:07:31.997Z,0.4
2019-04-14T00:12:34.183Z,0.4
2019-04-14T00:17:36.946Z,0.3
2019-04-14T00:22:38.753Z,0.3
2019-04-14T00:27:41.118Z,0.3
2019-04-14T00:32:44.361Z,0.2
2019-04-14T00:37:46.644Z,0.2
2019-04-14T00:42:47.907Z,0.3
2019-04-14T00:47:59.517Z,0.2
2019-04-14T00:52:52.414Z,0.2
2019-04-14T00:57:55.114Z,0.2
2019-04-14T01:02:57.969Z,0.2
2019-04-14T01:07:59.372Z,0.2
2019-04-14T01:13:02.763Z,0.2
2019-04-14T01:18:03.925Z,0.1
2019-04-14T01:23:06.443Z,0.1
2019-04-14T01:28:08.958Z,0.1
2019-04-14T01:33:11.869Z,0.1
2019-04-14T01:38:13.101Z,0
2019-04-14T01:43:16.659Z,0
2019-04-14T01:48:17.816Z,0
2019-04-14T01:53:20.757Z,-0.1
2019-04-14T01:58:22.889Z,-0.1
2019-04-14T02:03:25.740Z,-0.1
2019-04-14T02:08:26.843Z,-0.2
2019-04-14T02:13:29.283Z,-0.2
2019-04-14T02:18:31.858Z,-0.2
2019-04-14T02:23:34.394Z,-0.2
2019-04-14T02:28:37.436Z,-0.2
2019-04-14T02:34:00.698Z,-0.3
2019-04-14T02:34:41.648Z,-0.3
2019-04-14T02:35:06.133Z,-0.3
2019-04-14T02:39:38.578Z,-0.2
2019-04-14T02:40:08.977Z,-0.2
2019-04-14T02:44:12.149Z,-0.2
2019-04-14T02:45:08.571Z,-0.2
2019-04-14T02:49:16.918Z,-0.3
2019-04-14T02:49:47.135Z,-0.3
2019-04-14T02:54:11.783Z,-0.4
2019-04-14T02:54:50.416Z,-0.4
2019-04-14T02:55:08.560Z,-0.4
2019-04-14T02:59:13.231Z,-0.4
2019-04-14T02:59:45.257Z,-0.4
2019-04-14T03:04:21.649Z,-0.4
2019-04-14T03:04:50.906Z,-0.4
2019-04-14T03:05:19.332Z,-0.4
2019-04-14T03:09:30.242Z,-0.4
2019-04-14T03:09:46.693Z,-0.4
2019-04-14T03:10:20.960Z,-0.4
2019-04-14T03:14:21.520Z,-0.4
2019-04-14T03:14:53.848Z,-0.4
2019-04-14T03:15:27.892Z,-0.4
2019-04-14T03:19:25.040Z,-0.4
2019-04-14T03:20:06.525Z,-0.4
2019-04-14T03:20:27.958Z,-0.4
2019-04-14T03:24:26.976Z,-0.5
2019-04-14T03:24:42.193Z,-0.5
2019-04-14T03:25:17.110Z,-0.5
2019-04-14T03:29:29.209Z,-0.5
2019-04-14T03:29:58.382Z,-0.5
2019-04-14T03:35:24.908Z,-0.5
2019-04-14T03:39:41.979Z,-0.4
2019-04-14T03:40:05.875Z,-0.4
2019-04-14T03:40:34.325Z,-0.4
2019-04-14T03:44:34.670Z,-0.3
2019-04-14T03:45:11.123Z,-0.3
2019-04-14T03:45:43.411Z,-0.3
2019-04-14T03:49:37.287Z,-0.2
2019-04-14T03:50:06.038Z,-0.2
2019-04-14T03:50:37.870Z,-0.2
2019-04-14T03:54:33.271Z,-0.2
2019-04-14T03:55:04.108Z,-0.2
2019-04-14T03:55:25.032Z,-0.2
2019-04-14T03:59:17.593Z,-0.3
2019-04-14T04:04:20.605Z,-0.3
2019-04-14T04:09:21.905Z,-0.4
2019-04-14T04:14:24.620Z,-0.4
2019-04-14T04:19:27.302Z,-0.4
2019-04-14T04:24:30.623Z,-0.4
2019-04-14T04:29:31.111Z,-0.5
2019-04-14T04:34:33.801Z,-0.5
2019-04-14T04:39:36.966Z,-0.5
2019-04-14T04:44:38.080Z,-0.5
2019-04-14T04:49:40.504Z,-0.6
2019-04-14T04:54:42.842Z,-0.6
2019-04-14T04:59:45.269Z,-0.6
2019-04-14T05:04:48.300Z,-0.7
2019-04-14T05:09:49.606Z,-0.7
2019-04-14T05:14:52.367Z,-0.7
2019-04-14T05:19:54.193Z,-0.6
2019-04-14T05:24:57.155Z,-0.5
2019-04-14T05:29:58.786Z,-0.4
2019-04-14T05:35:00.944Z,-0.4
2019-04-14T05:40:03.789Z,-0.3
2019-04-14T05:45:06.601Z,-0.2
2019-04-14T05:50:07.858Z,-0.1
2019-04-14T05:55:11.197Z,-0.1
2019-04-14T06:00:12.526Z,0
2019-04-14T06:05:14.702Z,0
2019-04-14T06:10:17.160Z,0.1
2019-04-14T06:15:19.257Z,0.2
2019-04-14T06:20:21.661Z,0.3
2019-04-14T06:25:23.885Z,0.4
2019-04-14T06:30:26.203Z,0.8
2019-04-14T06:35:28.484Z,0.9
2019-04-14T06:40:30.787Z,1.2
2019-04-14T06:45:33.176Z,1.4
2019-04-14T06:50:35.496Z,1.8
2019-04-14T06:55:37.868Z,2
2019-04-14T07:00:39.902Z,2.1
2019-04-14T07:05:42.357Z,2.2
2019-04-14T07:10:44.612Z,2.6
2019-04-14T07:15:46.817Z,3.1
2019-04-14T07:20:49.109Z,3.3
2019-04-14T07:25:51.367Z,3.3
2019-04-14T07:30:53.785Z,3.1
2019-04-14T07:35:55.994Z,2.9
2019-04-14T07:40:58.220Z,2.8
2019-04-14T07:46:00.674Z,3.1
2019-04-14T07:51:02.868Z,3.6
2019-04-14T07:56:05.271Z,4.1
2019-04-14T08:01:07.467Z,4.7
2019-04-14T08:06:09.678Z,4.9
2019-04-14T08:11:12.047Z,5.2
2019-04-14T08:16:14.384Z,5
2019-04-14T08:21:16.689Z,4.7
2019-04-14T08:26:19.016Z,4.6
2019-04-14T08:31:21.312Z,4.3
2019-04-14T08:36:23.587Z,4.2
2019-04-14T08:41:25.705Z,4
2019-04-14T08:46:28.009Z,3.9
2019-04-14T08:51:30.322Z,4
2019-04-14T08:56:32.698Z,4.2
2019-04-14T09:01:35.046Z,4.5
2019-04-14T09:06:37.330Z,4.1
2019-04-14T09:11:39.587Z,4.2
2019-04-14T09:16:41.865Z,4.2
2019-04-14T09:21:44.217Z,4
2019-04-14T09:26:46.471Z,4.1
2019-04-14T09:31:48.848Z,4.3
2019-04-14T09:36:50.964Z,4.4
2019-04-14T09:41:53.293Z,4.7
2019-04-14T09:46:55.540Z,5.3
2019-04-14T09:51:57.947Z,5.6
2019-04-14T09:57:00.358Z,5.4
2019-04-14T10:02:02.499Z,6.1
2019-04-14T10:07:04.856Z,6.2
2019-04-14T10:12:07.199Z,6.4
2019-04-14T10:17:09.317Z,7.3
2019-04-14T10:22:11.699Z,8.3
2019-04-14T10:27:13.992Z,8
2019-04-14T10:32:16.255Z,7.6
2019-04-14T10:37:18.517Z,7.5
2019-04-14T10:42:20.866Z,7.9
2019-04-14T10:47:23.127Z,7.9
2019-04-14T10:52:25.437Z,7.8
2019-04-14T10:57:27.791Z,7.4
2019-04-14T11:02:29.945Z,7.2
2019-04-14T11:07:32.423Z,7.2
2019-04-14T11:12:34.611Z,7.7
2019-04-14T11:17:37.000Z,8.1
2019-04-14T11:22:39.241Z,8.6
2019-04-14T11:27:41.605Z,9
2019-04-14T11:32:43.790Z,9.5
2019-04-14T11:37:46.159Z,9.1
2019-04-14T11:42:52.414Z,8.9
2019-04-14T11:52:53.063Z,9
2019-04-14T11:57:55.219Z,10.8
2019-04-14T12:02:57.549Z,11.7
2019-04-14T12:07:59.827Z,11.7
2019-04-14T12:13:02.134Z,10.6
2019-04-14T12:18:04.412Z,10.6
2019-04-14T12:23:06.643Z,10.5
2019-04-14T12:28:09.262Z,11.2
2019-04-14T12:33:11.299Z,12.2
2019-04-14T12:38:13.693Z,12.8
2019-04-14T12:43:15.901Z,12.7
2019-04-14T12:48:18.182Z,11.5
2019-04-14T12:53:20.424Z,11
2019-04-14T12:58:22.968Z,10.4
2019-04-14T13:03:25.097Z,9.8
2019-04-14T13:13:29.755Z,10.6
2019-04-14T13:18:31.926Z,10.5
2019-04-14T13:23:34.266Z,11.1
2019-04-14T13:28:36.547Z,12.1
2019-04-14T13:33:38.839Z,13.2
2019-04-14T13:38:41.063Z,13.8
2019-04-14T13:43:43.347Z,13.5
2019-04-14T13:48:45.861Z,12.3
2019-04-14T13:53:48.093Z,12.8
2019-04-14T13:58:50.316Z,13.1
2019-04-14T14:03:52.663Z,12.4
2019-04-14T14:08:54.958Z,11.5
2019-04-14T14:13:57.195Z,11.5
2019-04-14T14:19:02.771Z,12.5
2019-04-14T14:24:02.967Z,13.4
2019-04-14T14:29:05.359Z,12.5
2019-04-14T14:34:07.482Z,11.8
2019-04-14T14:39:09.761Z,12.2
2019-04-14T14:44:12.044Z,12.6
2019-04-14T14:49:14.369Z,12.3
2019-04-14T14:54:16.750Z,11.8
2019-04-14T14:59:19.018Z,11.5
2019-04-14T15:04:21.282Z,11.4
2019-04-14T15:09:23.631Z,12
2019-04-14T15:14:25.907Z,12
2019-04-14T15:19:28.164Z,11.6
2019-04-14T15:24:30.421Z,11.8
2019-04-14T15:34:35.044Z,11.7
2019-04-14T15:39:37.741Z,12.5
2019-04-14T15:44:39.535Z,12.4
2019-04-14T15:49:41.816Z,12
2019-04-14T15:54:44.152Z,12.3
2019-04-14T15:59:46.485Z,12.5
2019-04-14T16:04:48.853Z,12.7
2019-04-14T16:09:51.044Z,12.8
2019-04-14T16:14:53.359Z,12.6
2019-04-14T16:19:55.592Z,11.9
2019-04-14T16:24:58.025Z,11.4
2019-04-14T16:30:00.275Z,11.2
2019-04-14T16:35:02.576Z,11
2019-04-14T16:40:04.898Z,10.8
2019-04-14T16:45:07.103Z,10.5
2019-04-14T16:50:09.462Z,10.2
2019-04-14T16:55:11.643Z,10
2019-04-14T17:00:13.967Z,10
2019-04-14T17:05:16.277Z,9.8
2019-04-14T17:10:18.641Z,9.7
2019-04-14T17:15:21.006Z,9.7
2019-04-14T17:20:23.219Z,9.6
2019-04-14T17:25:25.505Z,9.5
2019-04-14T17:30:27.776Z,9.4
2019-04-14T17:35:30.345Z,9.3
2019-04-14T17:40:32.969Z,9.3
2019-04-14T17:45:34.665Z,9.1
2019-04-14T17:50:40.900Z,9
2019-04-14T17:55:49.421Z,8.7
2019-04-14T18:00:41.607Z,8.6
2019-04-14T18:05:43.864Z,8.4
2019-04-14T18:10:46.116Z,8.3
2019-04-14T18:15:48.424Z,8.2
2019-04-14T18:25:52.968Z,7.9
2019-04-14T18:30:55.319Z,7.6
2019-04-14T18:35:57.540Z,7.5
2019-04-14T18:40:59.905Z,7.4
2019-04-14T18:46:02.367Z,7.2
2019-04-14T18:51:04.529Z,7.1
2019-04-14T18:56:06.834Z,7
2019-04-14T19:01:09.052Z,6.9
2019-04-14T19:06:11.394Z,6.8
2019-04-14T19:11:13.679Z,6.7
2019-04-14T19:16:15.940Z,6.6
2019-04-14T19:21:18.387Z,6.5
2019-04-14T19:26:20.669Z,6.4
2019-04-14T19:31:22.901Z,6.4
2019-04-14T19:36:25.182Z,6.5
2019-04-14T19:41:27.334Z,6.6
2019-04-14T19:46:29.902Z,6.5
2019-04-14T19:51:31.921Z,6.4
2019-04-14T19:56:34.303Z,6.5
2019-04-14T20:01:36.550Z,6.5
2019-04-14T20:06:38.810Z,6.4
2019-04-14T20:11:41.199Z,6.3
2019-04-14T20:16:43.574Z,6.3
2019-04-14T20:21:45.861Z,6.2
2019-04-14T20:26:48.198Z,6.1
2019-04-14T20:31:50.353Z,6
2019-04-14T20:36:52.720Z,5.8
2019-04-14T20:41:54.964Z,5.7
2019-04-14T20:46:57.207Z,5.7
2019-04-14T20:51:59.527Z,5.7
2019-04-14T20:57:01.866Z,5.6
2019-04-14T21:02:04.097Z,5.5
2019-04-14T21:07:06.370Z,5.5
2019-04-14T21:12:08.788Z,5.4
2019-04-14T21:17:11.090Z,5.3
2019-04-14T21:22:13.262Z,5.2
2019-04-14T21:27:15.616Z,5.2
2019-04-14T21:32:17.876Z,5.1
2019-04-14T21:37:20.264Z,5
2019-04-14T21:42:22.358Z,4.8
2019-04-14T21:47:24.751Z,4.7
2019-04-14T21:52:26.957Z,4.6
2019-04-14T21:57:29.325Z,4.6
2019-04-14T22:02:31.705Z,4.5
2019-04-14T22:07:33.992Z,4.5
2019-04-14T22:12:36.324Z,4.4
2019-04-14T22:17:38.687Z,4.4
2019-04-14T22:22:40.816Z,4.3
2019-04-14T22:27:43.167Z,4.2
2019-04-14T22:32:45.391Z,4.2
2019-04-14T22:37:47.778Z,4.1
2019-04-14T22:42:50.005Z,4
2019-04-14T22:47:52.211Z,3.9
2019-04-14T22:52:54.475Z,3.9
2019-04-14T22:57:56.991Z,3.8
2019-04-14T23:02:59.094Z,3.7
2019-04-14T23:08:01.527Z,3.7
2019-04-14T23:13:03.820Z,3.6
2019-04-14T23:18:06.172Z,3.6
2019-04-14T23:23:08.506Z,3.4
2019-04-14T23:28:10.701Z,3.3
2019-04-14T23:33:12.812Z,3.3
2019-04-14T23:38:15.250Z,3.2
2019-04-14T23:43:17.650Z,3.2
2019-04-14T23:48:19.824Z,3.1
2019-04-14T23:53:22.202Z,3.1
2019-04-14T23:58:24.435Z,3
